createdAt,value
2019-03-13T00:00:44.521Z,997.35
2019-03-13T00:01:44.515Z,997.32
2019-03-13T00:02:44.534Z,997.33
2019-03-13T00:03:44.527Z,997.21
2019-03-13T00:04:44.478Z,997.16
2019-03-13T00:05:44.482Z,997.21
2019-03-13T00:06:44.536Z,997.27
2019-03-13T00:07:44.458Z,997.25
2019-03-13T00:08:44.441Z,997.33
2019-03-13T00:09:44.449Z,997.32
2019-03-13T00:10:44.410Z,997.21
2019-03-13T00:11:44.399Z,997.29
2019-03-13T00:12:44.402Z,997.30
2019-03-13T00:13:44.390Z,997.27
2019-03-13T00:14:44.378Z,997.23
2019-03-13T00:15:44.351Z,997.20
2019-03-13T00:16:44.340Z,997.18
2019-03-13T00:17:44.341Z,997.14
2019-03-13T00:18:44.318Z,997.10
2019-03-13T00:19:44.311Z,997.10
2019-03-13T00:20:44.308Z,997.16
2019-03-13T00:21:44.296Z,997.20
2019-03-13T00:22:44.393Z,997.12
2019-03-13T00:23:44.276Z,997.05
2019-03-13T00:24:44.265Z,997.07
2019-03-13T00:25:44.248Z,997.07
2019-03-13T00:26:44.229Z,996.93
2019-03-13T00:27:44.308Z,996.99
2019-03-13T00:28:44.233Z,996.89
2019-03-13T00:29:44.196Z,996.90
2019-03-13T00:30:44.286Z,996.89
2019-03-13T00:31:44.185Z,996.87
2019-03-13T00:32:44.160Z,996.86
2019-03-13T00:33:44.167Z,996.86
2019-03-13T00:34:44.191Z,996.73
2019-03-13T00:35:44.154Z,996.80
2019-03-13T00:36:44.128Z,996.84
2019-03-13T00:37:44.115Z,996.85
2019-03-13T00:38:44.104Z,996.83
2019-03-13T00:39:44.082Z,996.85
2019-03-13T00:40:44.071Z,996.84
2019-03-13T00:41:44.064Z,996.82
2019-03-13T00:42:44.263Z,996.85
2019-03-13T00:43:44.040Z,996.81
2019-03-13T00:44:44.032Z,996.85
2019-03-13T00:45:44.046Z,996.84
2019-03-13T00:46:44.002Z,996.78
2019-03-13T00:47:44.016Z,996.82
2019-03-13T00:48:44.000Z,996.81
2019-03-13T00:49:43.977Z,996.72
2019-03-13T00:50:43.978Z,996.79
2019-03-13T00:51:43.945Z,996.83
2019-03-13T00:52:43.948Z,996.87
2019-03-13T00:53:43.933Z,996.85
2019-03-13T00:54:43.935Z,996.85
2019-03-13T00:55:43.910Z,996.81
2019-03-13T00:56:43.974Z,996.86
2019-03-13T00:57:43.955Z,996.83
2019-03-13T00:58:43.881Z,996.78
2019-03-13T00:59:43.864Z,996.82
2019-03-13T01:00:43.855Z,996.82
2019-03-13T01:01:43.849Z,996.69
2019-03-13T01:02:43.829Z,996.68
2019-03-13T01:03:43.818Z,996.64
2019-03-13T01:04:43.802Z,996.74
2019-03-13T01:05:43.808Z,996.69
2019-03-13T01:06:43.815Z,996.78
2019-03-13T01:07:43.782Z,996.70
2019-03-13T01:08:43.795Z,996.68
2019-03-13T01:09:43.767Z,996.68
2019-03-13T01:10:43.894Z,996.73
2019-03-13T01:11:43.762Z,996.75
2019-03-13T01:12:43.712Z,996.71
2019-03-13T01:13:43.696Z,996.73
2019-03-13T01:14:43.696Z,996.75
2019-03-13T01:15:43.676Z,996.74
2019-03-13T01:16:43.818Z,996.77
2019-03-13T01:17:43.686Z,996.76
2019-03-13T01:18:43.698Z,996.70
2019-03-13T01:19:43.631Z,996.80
2019-03-13T01:20:43.628Z,996.72
2019-03-13T01:21:43.648Z,996.76
2019-03-13T01:22:43.619Z,996.69
2019-03-13T01:23:43.583Z,996.72
2019-03-13T01:24:43.673Z,996.77
2019-03-13T01:25:43.583Z,996.83
2019-03-13T01:26:43.560Z,997.08
2019-03-13T01:27:43.553Z,996.92
2019-03-13T01:28:43.719Z,996.92
2019-03-13T01:29:43.523Z,996.89
2019-03-13T01:30:43.908Z,997.02
2019-03-13T01:31:43.517Z,997.12
2019-03-13T01:32:43.501Z,997.11
2019-03-13T01:33:43.490Z,997.10
2019-03-13T01:34:43.464Z,997.13
2019-03-13T01:35:43.457Z,997.14
2019-03-13T01:36:43.450Z,997.33
2019-03-13T01:37:43.433Z,997.11
2019-03-13T01:38:43.425Z,997.10
2019-03-13T01:39:43.431Z,997.23
2019-03-13T01:40:43.394Z,997.25
2019-03-13T01:41:43.403Z,997.12
2019-03-13T01:42:43.406Z,997.15
2019-03-13T01:43:43.360Z,997.12
2019-03-13T01:44:43.367Z,996.94
2019-03-13T01:45:43.339Z,997.03
2019-03-13T01:46:43.338Z,997.05
2019-03-13T01:47:43.314Z,997.08
2019-03-13T01:48:43.302Z,997.10
2019-03-13T01:49:43.301Z,996.95
2019-03-13T01:50:43.338Z,997.09
2019-03-13T01:51:43.285Z,996.97
2019-03-13T01:52:43.265Z,997.07
2019-03-13T01:53:43.248Z,997.05
2019-03-13T01:54:43.285Z,996.95
2019-03-13T01:55:43.298Z,997.01
2019-03-13T01:56:43.241Z,997.07
2019-03-13T01:57:43.205Z,997.00
2019-03-13T01:58:43.218Z,997.09
2019-03-13T01:59:43.183Z,997.15
2019-03-13T02:00:43.173Z,997.04
2019-03-13T02:01:43.182Z,997.10
2019-03-13T02:02:43.152Z,997.03
2019-03-13T02:03:43.151Z,997.02
2019-03-13T02:04:43.122Z,997.03
2019-03-13T02:05:43.120Z,997.04
2019-03-13T02:06:43.112Z,997.11
2019-03-13T02:07:43.105Z,997.17
2019-03-13T02:08:43.092Z,997.07
2019-03-13T02:09:43.089Z,997.06
2019-03-13T02:10:43.062Z,997.09
2019-03-13T02:11:43.064Z,997.19
2019-03-13T02:12:43.036Z,997.09
2019-03-13T02:13:43.055Z,997.21
2019-03-13T02:14:43.058Z,997.18
2019-03-13T02:15:42.994Z,997.18
2019-03-13T02:16:42.997Z,997.21
2019-03-13T02:17:43.032Z,997.19
2019-03-13T02:18:42.982Z,997.11
2019-03-13T02:19:42.955Z,997.20
2019-03-13T02:20:42.971Z,997.16
2019-03-13T02:21:42.977Z,997.11
2019-03-13T02:22:42.914Z,997.15
2019-03-13T02:23:42.916Z,997.05
2019-03-13T02:24:42.896Z,997.00
2019-03-13T02:25:42.899Z,997.04
2019-03-13T02:26:42.869Z,996.97
2019-03-13T02:27:42.870Z,996.99
2019-03-13T02:28:42.855Z,996.98
2019-03-13T02:29:42.852Z,996.95
2019-03-13T02:30:42.841Z,996.88
2019-03-13T02:31:42.846Z,996.90
2019-03-13T02:32:42.899Z,996.92
2019-03-13T02:33:42.799Z,996.82
2019-03-13T02:34:42.802Z,996.78
2019-03-13T02:35:42.802Z,996.70
2019-03-13T02:36:42.770Z,996.75
2019-03-13T02:37:42.747Z,996.70
2019-03-13T02:38:42.733Z,996.61
2019-03-13T02:39:42.725Z,996.62
2019-03-13T02:40:42.750Z,996.62
2019-03-13T02:41:42.830Z,996.60
2019-03-13T02:42:42.707Z,996.51
2019-03-13T02:43:42.711Z,996.54
2019-03-13T02:44:42.676Z,996.56
2019-03-13T02:45:42.668Z,996.64
2019-03-13T02:46:42.639Z,996.59
2019-03-13T02:47:42.668Z,996.62
2019-03-13T02:48:42.633Z,996.58
2019-03-13T02:49:42.611Z,996.54
2019-03-13T02:50:42.609Z,996.59
2019-03-13T02:51:42.600Z,996.62
2019-03-13T02:52:42.621Z,996.59
2019-03-13T02:53:42.612Z,996.56
2019-03-13T02:54:42.553Z,996.57
2019-03-13T02:55:42.548Z,996.64
2019-03-13T02:56:42.543Z,996.59
2019-03-13T02:57:42.546Z,996.69
2019-03-13T02:58:42.507Z,996.58
2019-03-13T02:59:42.526Z,996.62
2019-03-13T03:00:42.504Z,996.74
2019-03-13T03:01:42.480Z,996.72
2019-03-13T03:02:42.464Z,996.75
2019-03-13T03:03:42.501Z,996.74
2019-03-13T03:04:42.441Z,996.78
2019-03-13T03:05:42.428Z,996.78
2019-03-13T03:06:42.419Z,996.76
2019-03-13T03:07:42.415Z,996.84
2019-03-13T03:08:42.416Z,996.96
2019-03-13T03:09:42.382Z,996.89
2019-03-13T03:10:42.400Z,996.89
2019-03-13T03:11:42.380Z,996.95
2019-03-13T03:12:42.353Z,997.07
2019-03-13T03:13:42.345Z,996.98
2019-03-13T03:14:42.322Z,997.14
2019-03-13T03:15:42.319Z,997.19
2019-03-13T03:16:42.329Z,997.11
2019-03-13T03:17:42.286Z,997.27
2019-03-13T03:18:42.289Z,997.25
2019-03-13T03:19:42.280Z,997.16
2019-03-13T03:20:42.261Z,997.37
2019-03-13T03:21:42.255Z,997.62
2019-03-13T03:22:42.259Z,997.75
2019-03-13T03:23:45.231Z,997.56
2019-03-13T03:24:42.220Z,997.61
2019-03-13T03:25:42.210Z,997.79
2019-03-13T03:26:42.203Z,997.83
2019-03-13T03:27:42.188Z,997.74
2019-03-13T03:28:42.163Z,997.73
2019-03-13T03:29:42.160Z,997.73
2019-03-13T03:30:42.158Z,997.69
2019-03-13T03:31:42.157Z,997.76
2019-03-13T03:32:42.130Z,997.67
2019-03-13T03:33:42.135Z,997.90
2019-03-13T03:34:42.105Z,997.72
2019-03-13T03:35:42.091Z,997.73
2019-03-13T03:36:42.098Z,997.77
2019-03-13T03:37:42.058Z,997.82
2019-03-13T03:38:42.059Z,997.86
2019-03-13T03:39:42.047Z,997.97
2019-03-13T03:40:42.033Z,997.89
2019-03-13T03:41:42.034Z,997.84
2019-03-13T03:42:42.041Z,997.92
2019-03-13T03:43:41.992Z,997.94
2019-03-13T03:44:42.005Z,997.97
2019-03-13T03:45:42.016Z,998.12
2019-03-13T03:46:41.965Z,998.16
2019-03-13T03:47:41.964Z,998.11
2019-03-13T03:48:41.939Z,998.22
2019-03-13T03:49:41.932Z,998.21
2019-03-13T03:50:41.941Z,998.24
2019-03-13T03:51:41.997Z,998.29
2019-03-13T03:52:41.951Z,998.33
2019-03-13T03:53:41.872Z,998.33
2019-03-13T03:54:41.865Z,998.48
2019-03-13T03:55:41.870Z,998.39
2019-03-13T03:56:41.890Z,998.37
2019-03-13T03:57:41.828Z,998.46
2019-03-13T03:58:41.824Z,998.49
2019-03-13T03:59:41.840Z,998.60
2019-03-13T04:00:41.813Z,998.55
2019-03-13T04:01:41.881Z,998.58
2019-03-13T04:02:41.772Z,998.52
2019-03-13T04:03:41.777Z,998.46
2019-03-13T04:04:41.752Z,998.73
2019-03-13T04:05:41.892Z,998.63
2019-03-13T04:06:41.737Z,998.73
2019-03-13T04:07:41.720Z,998.63
2019-03-13T04:08:41.709Z,998.66
2019-03-13T04:09:41.723Z,998.76
2019-03-13T04:10:41.738Z,998.83
2019-03-13T04:11:41.671Z,998.73
2019-03-13T04:12:41.680Z,998.67
2019-03-13T04:13:44.855Z,998.86
2019-03-13T04:14:41.635Z,998.98
2019-03-13T04:15:41.619Z,999.04
2019-03-13T04:16:41.623Z,998.99
2019-03-13T04:17:41.631Z,999.04
2019-03-13T04:18:41.593Z,999.11
2019-03-13T04:19:41.574Z,999.23
2019-03-13T04:20:41.585Z,999.07
2019-03-13T04:21:41.575Z,999.10
2019-03-13T04:22:41.551Z,999.15
2019-03-13T04:23:41.571Z,999.08
2019-03-13T04:24:41.537Z,999.09
2019-03-13T04:25:41.513Z,999.07
2019-03-13T04:26:41.519Z,999.11
2019-03-13T04:27:41.495Z,999.12
2019-03-13T04:28:41.491Z,999.20
2019-03-13T04:29:41.459Z,999.20
2019-03-13T04:30:41.466Z,999.23
2019-03-13T04:31:41.450Z,999.36
2019-03-13T04:32:41.427Z,999.25
2019-03-13T04:33:41.413Z,999.26
2019-03-13T04:34:41.419Z,999.28
2019-03-13T04:35:41.420Z,999.38
2019-03-13T04:36:41.381Z,999.32
2019-03-13T04:37:41.412Z,999.38
2019-03-13T04:38:41.370Z,999.34
2019-03-13T04:39:41.350Z,999.31
2019-03-13T04:40:41.357Z,999.38
2019-03-13T04:41:41.336Z,999.40
2019-03-13T04:42:41.324Z,999.37
2019-03-13T04:43:41.325Z,999.45
2019-03-13T04:44:41.306Z,999.48
2019-03-13T04:45:41.289Z,999.53
2019-03-13T04:46:41.266Z,999.43
2019-03-13T04:47:41.287Z,999.55
2019-03-13T04:48:41.282Z,999.51
2019-03-13T04:49:41.236Z,999.57
2019-03-13T04:50:41.271Z,999.54
2019-03-13T04:51:41.228Z,999.55
2019-03-13T04:52:41.206Z,999.54
2019-03-13T04:53:41.190Z,999.52
2019-03-13T04:54:41.207Z,999.65
2019-03-13T04:55:41.188Z,999.55
2019-03-13T04:56:41.161Z,999.64
2019-03-13T04:57:41.146Z,999.63
2019-03-13T04:58:41.144Z,999.71
2019-03-13T04:59:41.131Z,999.69
2019-03-13T05:00:41.158Z,999.64
2019-03-13T05:01:41.102Z,999.78
2019-03-13T05:02:41.095Z,999.76
2019-03-13T05:03:41.077Z,999.72
2019-03-13T05:04:41.105Z,999.74
2019-03-13T05:05:41.090Z,999.73
2019-03-13T05:06:41.046Z,999.77
2019-03-13T05:07:41.031Z,999.69
2019-03-13T05:08:45.282Z,999.75
2019-03-13T05:09:41.017Z,999.78
2019-03-13T05:10:41.007Z,999.73
2019-03-13T05:11:41.009Z,999.79
2019-03-13T05:12:40.998Z,999.80
2019-03-13T05:13:40.971Z,999.78
2019-03-13T05:14:40.983Z,999.76
2019-03-13T05:15:41.080Z,999.76
2019-03-13T05:16:40.929Z,999.74
2019-03-13T05:17:40.958Z,999.79
2019-03-13T05:18:40.906Z,999.81
2019-03-13T05:19:40.906Z,999.79
2019-03-13T05:20:40.882Z,999.76
2019-03-13T05:21:40.887Z,999.82
2019-03-13T05:22:40.872Z,999.87
2019-03-13T05:23:40.880Z,999.87
2019-03-13T05:24:40.857Z,999.93
2019-03-13T05:25:40.852Z,999.91
2019-03-13T05:26:40.849Z,999.95
2019-03-13T05:27:40.824Z,999.93
2019-03-13T05:28:40.793Z,999.99
2019-03-13T05:29:40.795Z,1000.00
2019-03-13T05:30:40.808Z,1000.01
2019-03-13T05:31:40.767Z,1000.06
2019-03-13T05:32:40.944Z,1000.02
2019-03-13T05:33:40.771Z,1000.11
2019-03-13T05:34:40.726Z,1000.18
2019-03-13T05:35:41.236Z,1000.16
2019-03-13T05:36:40.785Z,1000.10
2019-03-13T05:37:40.698Z,1000.11
2019-03-13T05:38:40.687Z,1000.10
2019-03-13T05:39:40.708Z,1000.03
2019-03-13T05:40:40.746Z,1000.14
2019-03-13T05:41:40.651Z,1000.15
2019-03-13T05:42:40.674Z,1000.14
2019-03-13T05:43:40.643Z,1000.21
2019-03-13T05:44:40.619Z,1000.17
2019-03-13T05:45:40.626Z,1000.16
2019-03-13T05:46:40.604Z,1000.17
2019-03-13T05:47:40.627Z,1000.17
2019-03-13T05:48:40.574Z,1000.21
2019-03-13T05:49:40.575Z,1000.20
2019-03-13T05:50:40.587Z,1000.18
2019-03-13T05:51:40.542Z,1000.27
2019-03-13T05:52:40.531Z,1000.18
2019-03-13T05:53:40.531Z,1000.24
2019-03-13T05:54:40.507Z,1000.24
2019-03-13T05:55:40.514Z,1000.29
2019-03-13T05:56:40.935Z,1000.32
2019-03-13T05:57:40.473Z,1000.29
2019-03-13T05:58:40.484Z,1000.27
2019-03-13T05:59:40.467Z,1000.26
2019-03-13T06:00:40.741Z,1000.21
2019-03-13T06:01:40.437Z,1000.29
2019-03-13T06:02:40.453Z,1000.38
2019-03-13T06:03:40.461Z,1000.30
2019-03-13T06:04:40.404Z,1000.38
2019-03-13T06:05:40.403Z,1000.37
2019-03-13T06:06:41.234Z,1000.44
2019-03-13T06:07:40.383Z,1000.42
2019-03-13T06:08:40.349Z,1000.49
2019-03-13T06:09:40.344Z,1000.45
2019-03-13T06:10:40.340Z,1000.42
2019-03-13T06:11:40.322Z,1000.48
2019-03-13T06:12:40.326Z,1000.45
2019-03-13T06:13:40.331Z,1000.50
2019-03-13T06:14:40.280Z,1000.52
2019-03-13T06:15:40.286Z,1000.48
2019-03-13T06:16:40.276Z,1000.51
2019-03-13T06:17:48.835Z,1000.50
2019-03-13T06:18:40.240Z,1000.50
2019-03-13T06:19:40.268Z,1000.55
2019-03-13T06:20:40.254Z,1000.61
2019-03-13T06:21:40.207Z,1000.60
2019-03-13T06:22:40.216Z,1000.66
2019-03-13T06:23:40.186Z,1000.66
2019-03-13T06:24:40.174Z,1000.65
2019-03-13T06:25:40.186Z,1000.64
2019-03-13T06:26:40.148Z,1000.70
2019-03-13T06:27:40.182Z,1000.69
2019-03-13T06:28:40.131Z,1000.74
2019-03-13T06:29:40.127Z,1000.68
2019-03-13T06:30:40.134Z,1000.71
2019-03-13T06:31:40.096Z,1000.75
2019-03-13T06:32:40.084Z,1000.72
2019-03-13T06:33:40.104Z,1000.75
2019-03-13T06:34:40.094Z,1000.73
2019-03-13T06:35:40.056Z,1000.79
2019-03-13T06:36:40.052Z,1000.79
2019-03-13T06:37:40.045Z,1000.70
2019-03-13T06:38:40.023Z,1000.75
2019-03-13T06:39:40.004Z,1000.82
2019-03-13T06:40:40.009Z,1000.84
2019-03-13T06:41:40.063Z,1000.85
2019-03-13T06:42:40.178Z,1000.84
2019-03-13T06:43:39.956Z,1000.78
2019-03-13T06:44:39.985Z,1000.93
2019-03-13T06:45:39.987Z,1000.86
2019-03-13T06:46:39.928Z,1000.88
2019-03-13T06:47:39.929Z,1000.91
2019-03-13T06:48:39.955Z,1000.90
2019-03-13T06:49:39.905Z,1001.00
2019-03-13T06:50:39.886Z,1000.93
2019-03-13T06:51:39.881Z,1000.89
2019-03-13T06:52:39.862Z,1000.97
2019-03-13T06:53:39.841Z,1000.93
2019-03-13T06:54:39.835Z,1000.95
2019-03-13T06:55:39.979Z,1000.96
2019-03-13T06:56:39.810Z,1000.86
2019-03-13T06:57:39.802Z,1000.98
2019-03-13T06:58:39.799Z,1001.00
2019-03-13T06:59:39.771Z,1001.01
2019-03-13T07:00:39.779Z,1000.92
2019-03-13T07:01:39.762Z,1000.86
2019-03-13T07:02:39.749Z,1000.90
2019-03-13T07:03:39.745Z,1000.99
2019-03-13T07:04:39.735Z,1001.02
2019-03-13T07:05:39.794Z,1001.02
2019-03-13T07:06:39.691Z,1001.03
2019-03-13T07:07:39.682Z,1000.96
2019-03-13T07:08:39.668Z,1001.04
2019-03-13T07:09:39.863Z,1001.03
2019-03-13T07:10:39.678Z,1000.97
2019-03-13T07:11:39.633Z,1000.99
2019-03-13T07:12:39.629Z,1000.95
2019-03-13T07:13:39.619Z,1001.03
2019-03-13T07:14:39.605Z,1000.98
2019-03-13T07:15:39.809Z,1001.00
2019-03-13T07:16:39.587Z,1001.02
2019-03-13T07:17:39.569Z,1001.02
2019-03-13T07:18:39.569Z,1001.07
2019-03-13T07:19:39.556Z,1001.02
2019-03-13T07:20:39.583Z,1001.07
2019-03-13T07:21:39.549Z,1001.08
2019-03-13T07:22:39.509Z,1001.16
2019-03-13T07:23:39.514Z,1001.00
2019-03-13T07:24:39.487Z,1001.13
2019-03-13T07:25:48.275Z,1001.15
2019-03-13T07:26:39.510Z,1001.13
2019-03-13T07:27:39.448Z,1001.06
2019-03-13T07:28:39.440Z,1001.05
2019-03-13T07:29:39.441Z,1001.12
2019-03-13T07:30:39.426Z,1001.06
2019-03-13T07:31:39.422Z,1001.10
2019-03-13T07:32:39.410Z,1001.07
2019-03-13T07:33:39.391Z,1001.05
2019-03-13T07:34:39.376Z,1001.09
2019-03-13T07:35:39.384Z,1001.09
2019-03-13T07:36:39.382Z,1001.08
2019-03-13T07:37:39.346Z,1001.10
2019-03-13T07:38:39.349Z,1001.06
2019-03-13T07:39:39.331Z,1001.06
2019-03-13T07:40:39.310Z,1001.04
2019-03-13T07:41:39.324Z,1001.11
2019-03-13T07:42:39.326Z,1001.04
2019-03-13T07:43:39.313Z,1001.12
2019-03-13T07:44:39.304Z,1001.11
2019-03-13T07:45:39.298Z,1001.05
2019-03-13T07:46:39.253Z,1001.10
2019-03-13T07:47:39.231Z,1001.16
2019-03-13T07:48:39.230Z,1001.08
2019-03-13T07:49:39.222Z,1001.01
2019-03-13T07:50:39.211Z,1001.05
2019-03-13T07:51:39.199Z,1001.07
2019-03-13T07:52:39.169Z,1001.11
2019-03-13T07:53:39.163Z,1001.09
2019-03-13T07:54:39.179Z,1001.07
2019-03-13T07:55:39.192Z,1001.05
2019-03-13T07:56:39.144Z,1001.06
2019-03-13T07:57:39.126Z,1000.97
2019-03-13T07:58:39.279Z,1001.05
2019-03-13T07:59:39.097Z,1001.06
2019-03-13T08:00:39.078Z,1001.05
2019-03-13T08:01:39.113Z,1001.07
2019-03-13T08:02:39.056Z,1001.03
2019-03-13T08:03:39.071Z,1001.03
2019-03-13T08:04:39.041Z,1001.02
2019-03-13T08:05:39.080Z,1001.07
2019-03-13T08:06:39.021Z,1001.03
2019-03-13T08:07:39.009Z,1001.00
2019-03-13T08:08:38.996Z,1001.11
2019-03-13T08:09:38.976Z,1001.08
2019-03-13T08:10:38.974Z,1001.03
2019-03-13T08:11:38.984Z,1001.02
2019-03-13T08:12:38.961Z,1001.08
2019-03-13T08:13:38.937Z,1001.02
2019-03-13T08:14:38.937Z,1001.01
2019-03-13T08:15:38.938Z,1001.08
2019-03-13T08:16:38.942Z,1001.07
2019-03-13T08:17:38.901Z,1001.09
2019-03-13T08:18:38.899Z,1001.02
2019-03-13T08:19:38.885Z,1001.00
2019-03-13T08:20:38.856Z,1001.04
2019-03-13T08:21:38.872Z,1000.99
2019-03-13T08:22:38.838Z,1001.02
2019-03-13T08:23:38.823Z,1001.17
2019-03-13T08:24:38.814Z,1001.07
2019-03-13T08:25:38.811Z,1001.02
2019-03-13T08:26:38.816Z,1000.99
2019-03-13T08:27:38.783Z,1001.02
2019-03-13T08:28:38.773Z,1001.02
2019-03-13T08:29:38.751Z,1001.00
2019-03-13T08:30:38.744Z,1001.00
2019-03-13T08:31:38.768Z,1000.98
2019-03-13T08:32:38.717Z,1000.97
2019-03-13T08:33:38.727Z,1001.00
2019-03-13T08:34:38.736Z,1000.92
2019-03-13T08:35:38.719Z,1000.97
2019-03-13T08:36:40.675Z,1000.88
2019-03-13T08:37:41.790Z,1001.02
2019-03-13T08:38:38.653Z,1000.95
2019-03-13T08:39:38.662Z,1001.03
2019-03-13T08:40:38.626Z,1000.84
2019-03-13T08:41:38.659Z,1000.93
2019-03-13T08:42:38.631Z,1000.84
2019-03-13T08:43:38.626Z,1000.93
2019-03-13T08:44:38.592Z,1000.90
2019-03-13T08:45:38.593Z,1000.82
2019-03-13T08:46:38.562Z,1000.91
2019-03-13T08:47:38.566Z,1000.88
2019-03-13T08:48:38.543Z,1000.84
2019-03-13T08:49:38.527Z,1000.76
2019-03-13T08:50:38.533Z,1000.75
2019-03-13T08:51:38.529Z,1000.80
2019-03-13T08:52:38.502Z,1000.88
2019-03-13T08:53:38.494Z,1000.96
2019-03-13T08:54:38.495Z,1000.77
2019-03-13T08:55:38.463Z,1000.82
2019-03-13T08:56:38.628Z,1000.99
2019-03-13T08:57:38.451Z,1000.79
2019-03-13T08:58:38.426Z,1000.80
2019-03-13T08:59:38.432Z,1000.71
2019-03-13T09:00:38.442Z,1000.73
2019-03-13T09:01:38.398Z,1000.83
2019-03-13T09:02:38.413Z,1000.79
2019-03-13T09:03:38.369Z,1000.69
2019-03-13T09:04:41.765Z,1000.73
2019-03-13T09:05:38.343Z,1000.81
2019-03-13T09:06:38.334Z,1000.71
2019-03-13T09:07:38.342Z,1000.82
2019-03-13T09:08:38.370Z,1000.85
2019-03-13T09:09:38.318Z,1000.79
2019-03-13T09:10:38.313Z,1000.73
2019-03-13T09:11:38.307Z,1000.81
2019-03-13T09:12:38.319Z,1000.58
2019-03-13T09:13:38.257Z,1000.55
2019-03-13T09:14:38.317Z,1000.46
2019-03-13T09:15:38.232Z,1000.66
2019-03-13T09:16:38.230Z,1000.59
2019-03-13T09:17:38.220Z,1000.66
2019-03-13T09:18:38.202Z,1000.56
2019-03-13T09:19:38.190Z,1000.57
2019-03-13T09:20:38.211Z,1000.57
2019-03-13T09:21:38.173Z,1000.66
2019-03-13T09:22:38.179Z,1000.52
2019-03-13T09:23:38.629Z,1000.57
2019-03-13T09:24:38.162Z,1000.62
2019-03-13T09:25:38.120Z,1000.62
2019-03-13T09:26:38.109Z,1000.63
2019-03-13T09:27:38.306Z,1000.50
2019-03-13T09:28:38.120Z,1000.36
2019-03-13T09:29:38.128Z,1000.47
2019-03-13T09:30:38.062Z,1000.45
2019-03-13T09:31:38.144Z,1000.54
2019-03-13T09:32:38.054Z,1000.38
2019-03-13T09:33:38.106Z,1000.35
2019-03-13T09:34:38.019Z,1000.34
2019-03-13T09:35:38.028Z,1000.45
2019-03-13T09:36:38.001Z,1000.29
2019-03-13T09:37:38.002Z,1000.45
2019-03-13T09:38:38.458Z,1000.46
2019-03-13T09:39:38.317Z,1000.29
2019-03-13T09:40:37.955Z,1000.45
2019-03-13T09:41:38.006Z,1000.47
2019-03-13T09:42:37.926Z,1000.33
2019-03-13T09:43:37.938Z,1000.30
2019-03-13T09:44:38.365Z,1000.48
2019-03-13T09:45:37.925Z,1000.45
2019-03-13T09:46:37.901Z,1000.46
2019-03-13T09:47:37.895Z,1000.35
2019-03-13T09:48:37.880Z,1000.44
2019-03-13T09:49:37.874Z,1000.38
2019-03-13T09:50:37.851Z,1000.45
2019-03-13T09:51:37.824Z,1000.47
2019-03-13T09:52:37.830Z,1000.34
2019-03-13T09:53:37.804Z,1000.40
2019-03-13T09:54:38.291Z,1000.21
2019-03-13T09:55:37.790Z,1000.38
2019-03-13T09:56:37.796Z,1000.38
2019-03-13T09:57:37.763Z,1000.20
2019-03-13T09:58:37.747Z,1000.34
2019-03-13T09:59:43.386Z,1000.18
2019-03-13T10:00:38.738Z,1000.30
2019-03-13T10:01:37.731Z,1000.35
2019-03-13T10:02:37.751Z,1000.36
2019-03-13T10:03:37.701Z,1000.40
2019-03-13T10:04:37.780Z,1000.42
2019-03-13T10:05:37.688Z,1000.35
2019-03-13T10:06:37.682Z,1000.40
2019-03-13T10:07:37.670Z,1000.37
2019-03-13T10:08:37.639Z,1000.27
2019-03-13T10:09:37.646Z,1000.33
2019-03-13T10:10:37.646Z,1000.45
2019-03-13T10:11:37.607Z,1000.30
2019-03-13T10:12:37.611Z,1000.19
2019-03-13T10:13:37.619Z,1000.19
2019-03-13T10:14:37.923Z,1000.09
2019-03-13T10:15:37.556Z,1000.10
2019-03-13T10:16:37.546Z,1000.14
2019-03-13T10:17:37.549Z,1000.05
2019-03-13T10:18:37.556Z,1000.08
2019-03-13T10:19:37.512Z,1000.05
2019-03-13T10:20:37.521Z,1000.15
2019-03-13T10:21:37.488Z,999.90
2019-03-13T10:22:37.486Z,1000.09
2019-03-13T10:23:37.490Z,999.97
2019-03-13T10:24:37.477Z,1000.03
2019-03-13T10:25:37.495Z,999.97
2019-03-13T10:26:37.454Z,1000.09
2019-03-13T10:27:37.426Z,1000.05
2019-03-13T10:28:37.418Z,1000.03
2019-03-13T10:29:37.408Z,1000.01
2019-03-13T10:30:37.412Z,999.94
2019-03-13T10:31:37.438Z,999.97
2019-03-13T10:32:37.373Z,999.82
2019-03-13T10:33:37.365Z,999.86
2019-03-13T10:34:37.346Z,999.92
2019-03-13T10:35:37.359Z,999.86
2019-03-13T10:36:37.321Z,999.90
2019-03-13T10:37:37.327Z,999.88
2019-03-13T10:38:37.296Z,999.96
2019-03-13T10:39:37.303Z,999.93
2019-03-13T10:40:37.298Z,999.87
2019-03-13T10:41:37.276Z,999.87
2019-03-13T10:42:37.254Z,999.95
2019-03-13T10:43:37.264Z,999.83
2019-03-13T10:44:37.232Z,999.75
2019-03-13T10:45:37.236Z,999.73
2019-03-13T10:46:37.211Z,999.63
2019-03-13T10:47:37.234Z,999.81
2019-03-13T10:48:37.208Z,999.67
2019-03-13T10:49:37.204Z,999.79
2019-03-13T10:50:37.165Z,999.76
2019-03-13T10:51:37.168Z,999.62
2019-03-13T10:52:37.148Z,999.70
2019-03-13T10:53:37.137Z,999.60
2019-03-13T10:54:37.125Z,999.54
2019-03-13T10:55:37.117Z,999.69
2019-03-13T10:56:37.098Z,999.64
2019-03-13T10:57:37.085Z,999.66
2019-03-13T10:58:37.095Z,999.61
2019-03-13T10:59:37.126Z,999.68
2019-03-13T11:00:37.049Z,999.61
2019-03-13T11:01:37.039Z,999.67
2019-03-13T11:02:37.114Z,999.64
2019-03-13T11:03:37.021Z,999.62
2019-03-13T11:04:37.007Z,999.75
2019-03-13T11:05:37.029Z,999.61
2019-03-13T11:06:36.982Z,999.64
2019-03-13T11:07:36.974Z,999.57
2019-03-13T11:08:36.964Z,999.61
2019-03-13T11:09:36.968Z,999.58
2019-03-13T11:10:37.014Z,999.67
2019-03-13T11:11:36.945Z,999.68
2019-03-13T11:12:36.998Z,999.76
2019-03-13T11:13:36.906Z,999.72
2019-03-13T11:14:36.905Z,999.80
2019-03-13T11:15:36.893Z,999.84
2019-03-13T11:16:36.876Z,999.62
2019-03-13T11:17:36.871Z,999.57
2019-03-13T11:18:36.865Z,999.59
2019-03-13T11:19:36.876Z,999.73
2019-03-13T11:20:36.922Z,999.65
2019-03-13T11:21:36.816Z,999.53
2019-03-13T11:22:36.826Z,999.73
2019-03-13T11:23:36.797Z,999.57
2019-03-13T11:24:36.784Z,999.45
2019-03-13T11:25:36.796Z,999.61
2019-03-13T11:26:36.780Z,999.46
2019-03-13T11:27:36.761Z,999.79
2019-03-13T11:28:36.762Z,999.71
2019-03-13T11:29:36.732Z,999.72
2019-03-13T11:30:36.843Z,999.61
2019-03-13T11:31:36.709Z,999.60
2019-03-13T11:32:36.707Z,999.56
2019-03-13T11:33:36.708Z,999.68
2019-03-13T11:34:36.670Z,999.61
2019-03-13T11:35:36.671Z,999.65
2019-03-13T11:36:36.662Z,999.61
2019-03-13T11:37:36.639Z,999.68
2019-03-13T11:38:36.625Z,999.66
2019-03-13T11:39:36.625Z,999.69
2019-03-13T11:40:36.633Z,999.72
2019-03-13T11:41:36.609Z,999.56
2019-03-13T11:42:36.581Z,999.67
2019-03-13T11:43:36.589Z,999.61
2019-03-13T11:44:36.562Z,999.65
2019-03-13T11:45:36.655Z,999.67
2019-03-13T11:46:36.537Z,999.70
2019-03-13T11:47:42.397Z,999.57
2019-03-13T11:48:37.511Z,999.63
2019-03-13T11:49:36.519Z,999.45
2019-03-13T11:50:36.547Z,999.55
2019-03-13T11:51:36.476Z,999.52
2019-03-13T11:52:36.473Z,999.56
2019-03-13T11:53:36.542Z,999.65
2019-03-13T11:54:36.569Z,999.64
2019-03-13T11:55:36.486Z,999.66
2019-03-13T11:56:36.475Z,999.55
2019-03-13T11:57:36.407Z,999.56
2019-03-13T11:58:36.397Z,999.59
2019-03-13T11:59:36.405Z,999.60
2019-03-13T12:00:36.399Z,999.60
2019-03-13T12:01:45.253Z,999.47
2019-03-13T12:02:37.349Z,999.59
2019-03-13T12:03:36.340Z,999.51
2019-03-13T12:04:36.349Z,999.62
2019-03-13T12:05:36.322Z,999.54
2019-03-13T12:06:36.336Z,999.57
2019-03-13T12:07:36.320Z,999.61
2019-03-13T12:08:36.284Z,999.63
2019-03-13T12:09:36.288Z,999.62
2019-03-13T12:10:36.265Z,999.49
2019-03-13T12:11:36.263Z,999.48
2019-03-13T12:12:36.245Z,999.56
2019-03-13T12:13:36.252Z,999.62
2019-03-13T12:14:36.229Z,999.61
2019-03-13T12:15:36.217Z,999.57
2019-03-13T12:16:36.228Z,999.54
2019-03-13T12:17:36.192Z,999.51
2019-03-13T12:18:36.192Z,999.60
2019-03-13T12:19:36.191Z,999.63